sensor_id;sensor_type;location;lat;lon;timestamp;P1;P2;P0
59546;PMS5003;45368;55.002;-1.592;2022-08-24T00:01:24;3;3;
59546;PMS5003;45368;55.002;-1.592;2022-08-24T00:03:53;2;2;
59546;PMS5003;45368;55.002;-1.592;2022-08-24T00:06:22;3;3;
59546;PMS5003;45368;55.002;-1.592;2022-08-24T00:08:50;2;2;
59546;PMS5003;45368;55.002;-1.592;2022-08-24T00:11:19;2;2;
59546;PMS5003;45368;55.002;-1.592;2022-08-24T00:13:47;1;1;
59546;PMS5003;45368;55.002;-1.592;2022-08-24T00:16:15;2;2;
59546;PMS5003;45368;55.002;-1.592;2022-08-24T00:18:44;2;2;
59546;PMS5003;45368;55.002;-1.592;2022-08-24T00:21:12;2;2;
59546;PMS5003;45368;55.002;-1.592;2022-08-24T00:23:41;2;2;
59546;PMS5003;45368;55.002;-1.592;2022-08-24T00:26:08;3;3;
59546;PMS5003;45368;55.002;-1.592;2022-08-24T00:28:36;2;1;
59546;PMS5003;45368;55.002;-1.592;2022-08-24T00:31:04;3;2;
59546;PMS5003;45368;55.002;-1.592;2022-08-24T00:33:32;2;2;
59546;PMS5003;45368;55.002;-1.592;2022-08-24T00:35:59;2;2;
59546;PMS5003;45368;55.002;-1.592;2022-08-24T00:38:26;2;2;
59546;PMS5003;45368;55.002;-1.592;2022-08-24T00:40:53;2;2;
59546;PMS5003;45368;55.002;-1.592;2022-08-24T00:43:22;2;2;
59546;PMS5003;45368;55.002;-1.592;2022-08-24T00:46:04;1;1;
59546;PMS5003;45368;55.002;-1.592;2022-08-24T00:48:38;1;1;
59546;PMS5003;45368;55.002;-1.592;2022-08-24T00:51:11;3;3;
59546;PMS5003;45368;55.002;-1.592;2022-08-24T00:53:45;3;2;
59546;PMS5003;45368;55.002;-1.592;2022-08-24T00:56:16;2;2;
59546;PMS5003;45368;55.002;-1.592;2022-08-24T00:58:47;2;2;
59546;PMS5003;45368;55.002;-1.592;2022-08-24T01:01:16;4;3;
59546;PMS5003;45368;55.002;-1.592;2022-08-24T01:03:44;3;3;
59546;PMS5003;45368;55.002;-1.592;2022-08-24T01:06:11;2;2;
59546;PMS5003;45368;55.002;-1.592;2022-08-24T01:08:40;2;1;
59546;PMS5003;45368;55.002;-1.592;2022-08-24T01:11:09;4;3;
59546;PMS5003;45368;55.002;-1.592;2022-08-24T01:13:40;3;2;
59546;PMS5003;45368;55.002;-1.592;2022-08-24T01:16:09;3;3;
59546;PMS5003;45368;55.002;-1.592;2022-08-24T01:18:38;3;3;
59546;PMS5003;45368;55.002;-1.592;2022-08-24T01:21:09;2;2;
59546;PMS5003;45368;55.002;-1.592;2022-08-24T01:23:42;3;3;
59546;PMS5003;45368;55.002;-1.592;2022-08-24T01:26:13;2;2;
59546;PMS5003;45368;55.002;-1.592;2022-08-24T01:28:43;3;3;
59546;PMS5003;45368;55.002;-1.592;2022-08-24T01:31:13;3;3;
59546;PMS5003;45368;55.002;-1.592;2022-08-24T01:33:41;3;3;
59546;PMS5003;45368;55.002;-1.592;2022-08-24T01:36:11;1;1;
59546;PMS5003;45368;55.002;-1.592;2022-08-24T01:38:44;2;1;
59546;PMS5003;45368;55.002;-1.592;2022-08-24T01:41:13;3;2;
59546;PMS5003;45368;55.002;-1.592;2022-08-24T01:43:41;4;4;
59546;PMS5003;45368;55.002;-1.592;2022-08-24T01:46:09;2;2;
59546;PMS5003;45368;55.002;-1.592;2022-08-24T01:48:36;2;2;
59546;PMS5003;45368;55.002;-1.592;2022-08-24T01:51:04;3;3;
59546;PMS5003;45368;55.002;-1.592;2022-08-24T01:53:32;4;4;
59546;PMS5003;45368;55.002;-1.592;2022-08-24T01:55:59;2;2;
59546;PMS5003;45368;55.002;-1.592;2022-08-24T01:58:27;4;4;
59546;PMS5003;45368;55.002;-1.592;2022-08-24T02:00:55;3;3;
59546;PMS5003;45368;55.002;-1.592;2022-08-24T02:03:22;4;4;
59546;PMS5003;45368;55.002;-1.592;2022-08-24T02:05:49;4;4;
59546;PMS5003;45368;55.002;-1.592;2022-08-24T02:08:17;4;4;
59546;PMS5003;45368;55.002;-1.592;2022-08-24T02:10:44;4;3;
59546;PMS5003;45368;55.002;-1.592;2022-08-24T02:13:11;7;6;
59546;PMS5003;45368;55.002;-1.592;2022-08-24T02:15:39;2;2;
59546;PMS5003;45368;55.002;-1.592;2022-08-24T02:18:07;4;4;
59546;PMS5003;45368;55.002;-1.592;2022-08-24T02:20:36;4;4;
59546;PMS5003;45368;55.002;-1.592;2022-08-24T02:23:04;3;3;
59546;PMS5003;45368;55.002;-1.592;2022-08-24T02:25:31;3;2;
59546;PMS5003;45368;55.002;-1.592;2022-08-24T02:27:59;4;4;
59546;PMS5003;45368;55.002;-1.592;2022-08-24T02:30:28;5;4;
59546;PMS5003;45368;55.002;-1.592;2022-08-24T02:32:56;5;4;
59546;PMS5003;45368;55.002;-1.592;2022-08-24T02:35:24;4;4;
59546;PMS5003;45368;55.002;-1.592;2022-08-24T02:37:54;2;2;
59546;PMS5003;45368;55.002;-1.592;2022-08-24T02:40:21;3;3;
59546;PMS5003;45368;55.002;-1.592;2022-08-24T02:42:49;5;4;
59546;PMS5003;45368;55.002;-1.592;2022-08-24T02:45:17;3;3;
59546;PMS5003;45368;55.002;-1.592;2022-08-24T02:47:45;5;4;
59546;PMS5003;45368;55.002;-1.592;2022-08-24T02:50:14;3;3;
59546;PMS5003;45368;55.002;-1.592;2022-08-24T02:52:42;3;2;
59546;PMS5003;45368;55.002;-1.592;2022-08-24T02:55:12;2;2;
59546;PMS5003;45368;55.002;-1.592;2022-08-24T02:57:40;4;4;
59546;PMS5003;45368;55.002;-1.592;2022-08-24T03:00:09;4;4;
59546;PMS5003;45368;55.002;-1.592;2022-08-24T03:02:38;3;3;
59546;PMS5003;45368;55.002;-1.592;2022-08-24T03:05:06;3;3;
59546;PMS5003;45368;55.002;-1.592;2022-08-24T03:07:35;2;2;
59546;PMS5003;45368;55.002;-1.592;2022-08-24T03:10:03;3;3;
59546;PMS5003;45368;55.002;-1.592;2022-08-24T03:12:32;4;4;
59546;PMS5003;45368;55.002;-1.592;2022-08-24T03:15:00;3;3;
59546;PMS5003;45368;55.002;-1.592;2022-08-24T03:17:28;4;4;
59546;PMS5003;45368;55.002;-1.592;2022-08-24T03:19:55;5;4;
59546;PMS5003;45368;55.002;-1.592;2022-08-24T03:22:23;3;3;
59546;PMS5003;45368;55.002;-1.592;2022-08-24T03:24:50;4;4;
59546;PMS5003;45368;55.002;-1.592;2022-08-24T03:27:18;3;3;
59546;PMS5003;45368;55.002;-1.592;2022-08-24T03:29:46;4;4;
59546;PMS5003;45368;55.002;-1.592;2022-08-24T03:32:13;3;3;
59546;PMS5003;45368;55.002;-1.592;2022-08-24T03:34:41;2;2;
59546;PMS5003;45368;55.002;-1.592;2022-08-24T03:37:08;7;5;
59546;PMS5003;45368;55.002;-1.592;2022-08-24T03:39:35;5;5;
59546;PMS5003;45368;55.002;-1.592;2022-08-24T03:42:02;3;2;
59546;PMS5003;45368;55.002;-1.592;2022-08-24T03:44:30;3;3;
59546;PMS5003;45368;55.002;-1.592;2022-08-24T03:46:57;6;4;
59546;PMS5003;45368;55.002;-1.592;2022-08-24T03:49:26;4;4;
59546;PMS5003;45368;55.002;-1.592;2022-08-24T03:51:53;4;4;
59546;PMS5003;45368;55.002;-1.592;2022-08-24T03:54:20;4;4;
59546;PMS5003;45368;55.002;-1.592;2022-08-24T03:56:47;5;5;
59546;PMS5003;45368;55.002;-1.592;2022-08-24T03:59:14;5;5;
59546;PMS5003;45368;55.002;-1.592;2022-08-24T04:01:41;4;4;
59546;PMS5003;45368;55.002;-1.592;2022-08-24T04:04:09;3;3;
59546;PMS5003;45368;55.002;-1.592;2022-08-24T04:06:36;5;5;
59546;PMS5003;45368;55.002;-1.592;2022-08-24T04:09:04;5;5;
59546;PMS5003;45368;55.002;-1.592;2022-08-24T04:11:32;4;3;
59546;PMS5003;45368;55.002;-1.592;2022-08-24T04:14:00;5;5;
59546;PMS5003;45368;55.002;-1.592;2022-08-24T04:16:28;3;3;
59546;PMS5003;45368;55.002;-1.592;2022-08-24T04:18:55;3;3;
59546;PMS5003;45368;55.002;-1.592;2022-08-24T04:21:24;4;4;
59546;PMS5003;45368;55.002;-1.592;2022-08-24T04:23:54;4;4;
59546;PMS5003;45368;55.002;-1.592;2022-08-24T04:26:23;5;4;
59546;PMS5003;45368;55.002;-1.592;2022-08-24T04:28:51;4;4;
59546;PMS5003;45368;55.002;-1.592;2022-08-24T04:31:19;5;5;
59546;PMS5003;45368;55.002;-1.592;2022-08-24T04:33:47;4;4;
59546;PMS5003;45368;55.002;-1.592;2022-08-24T04:36:16;5;5;
59546;PMS5003;45368;55.002;-1.592;2022-08-24T04:38:44;5;5;
59546;PMS5003;45368;55.002;-1.592;2022-08-24T04:41:12;7;6;
59546;PMS5003;45368;55.002;-1.592;2022-08-24T04:43:41;7;5;
59546;PMS5003;45368;55.002;-1.592;2022-08-24T04:46:08;6;5;
59546;PMS5003;45368;55.002;-1.592;2022-08-24T04:48:36;8;8;
59546;PMS5003;45368;55.002;-1.592;2022-08-24T04:51:04;6;6;
59546;PMS5003;45368;55.002;-1.592;2022-08-24T04:53:33;7;7;
59546;PMS5003;45368;55.002;-1.592;2022-08-24T04:56:02;5;5;
59546;PMS5003;45368;55.002;-1.592;2022-08-24T04:58:30;7;7;
59546;PMS5003;45368;55.002;-1.592;2022-08-24T05:00:57;8;7;
59546;PMS5003;45368;55.002;-1.592;2022-08-24T05:03:24;7;7;
59546;PMS5003;45368;55.002;-1.592;2022-08-24T05:05:52;8;8;
59546;PMS5003;45368;55.002;-1.592;2022-08-24T05:08:19;7;6;
59546;PMS5003;45368;55.002;-1.592;2022-08-24T05:10:47;7;6;
59546;PMS5003;45368;55.002;-1.592;2022-08-24T05:13:14;7;7;
59546;PMS5003;45368;55.002;-1.592;2022-08-24T05:15:43;7;6;
59546;PMS5003;45368;55.002;-1.592;2022-08-24T05:18:12;6;6;
59546;PMS5003;45368;55.002;-1.592;2022-08-24T05:20:41;7;7;
59546;PMS5003;45368;55.002;-1.592;2022-08-24T05:23:10;6;6;
59546;PMS5003;45368;55.002;-1.592;2022-08-24T05:25:39;8;7;
59546;PMS5003;45368;55.002;-1.592;2022-08-24T05:28:06;11;9;
59546;PMS5003;45368;55.002;-1.592;2022-08-24T05:30:34;6;6;
59546;PMS5003;45368;55.002;-1.592;2022-08-24T05:33:02;9;9;
59546;PMS5003;45368;55.002;-1.592;2022-08-24T05:35:29;9;9;
59546;PMS5003;45368;55.002;-1.592;2022-08-24T05:37:57;8;7;
59546;PMS5003;45368;55.002;-1.592;2022-08-24T05:40:24;8;8;
59546;PMS5003;45368;55.002;-1.592;2022-08-24T05:42:51;6;6;
59546;PMS5003;45368;55.002;-1.592;2022-08-24T05:45:18;9;8;
59546;PMS5003;45368;55.002;-1.592;2022-08-24T05:47:46;10;9;
59546;PMS5003;45368;55.002;-1.592;2022-08-24T05:50:13;7;7;
59546;PMS5003;45368;55.002;-1.592;2022-08-24T05:52:40;9;9;
59546;PMS5003;45368;55.002;-1.592;2022-08-24T05:55:08;10;9;
59546;PMS5003;45368;55.002;-1.592;2022-08-24T05:57:35;10;10;
59546;PMS5003;45368;55.002;-1.592;2022-08-24T06:00:03;10;10;
59546;PMS5003;45368;55.002;-1.592;2022-08-24T06:02:32;13;12;
59546;PMS5003;45368;55.002;-1.592;2022-08-24T06:04:59;10;10;
59546;PMS5003;45368;55.002;-1.592;2022-08-24T06:07:27;11;10;
59546;PMS5003;45368;55.002;-1.592;2022-08-24T06:09:55;13;13;
59546;PMS5003;45368;55.002;-1.592;2022-08-24T06:12:22;10;10;
59546;PMS5003;45368;55.002;-1.592;2022-08-24T06:14:49;11;11;
59546;PMS5003;45368;55.002;-1.592;2022-08-24T06:17:16;13;11;
59546;PMS5003;45368;55.002;-1.592;2022-08-24T06:19:43;13;12;
59546;PMS5003;45368;55.002;-1.592;2022-08-24T06:22:11;11;11;
59546;PMS5003;45368;55.002;-1.592;2022-08-24T06:24:37;10;10;
59546;PMS5003;45368;55.002;-1.592;2022-08-24T06:27:04;13;11;
59546;PMS5003;45368;55.002;-1.592;2022-08-24T06:29:32;13;12;
59546;PMS5003;45368;55.002;-1.592;2022-08-24T06:32:00;13;11;
59546;PMS5003;45368;55.002;-1.592;2022-08-24T06:34:27;9;9;
59546;PMS5003;45368;55.002;-1.592;2022-08-24T06:36:54;11;11;
59546;PMS5003;45368;55.002;-1.592;2022-08-24T06:39:22;10;10;
59546;PMS5003;45368;55.002;-1.592;2022-08-24T06:41:49;10;10;
59546;PMS5003;45368;55.002;-1.592;2022-08-24T06:44:16;7;7;
59546;PMS5003;45368;55.002;-1.592;2022-08-24T06:46:43;8;8;
59546;PMS5003;45368;55.002;-1.592;2022-08-24T06:49:11;11;11;
59546;PMS5003;45368;55.002;-1.592;2022-08-24T06:51:38;9;9;
59546;PMS5003;45368;55.002;-1.592;2022-08-24T06:54:05;10;10;
59546;PMS5003;45368;55.002;-1.592;2022-08-24T06:56:34;11;9;
59546;PMS5003;45368;55.002;-1.592;2022-08-24T06:59:01;10;10;
59546;PMS5003;45368;55.002;-1.592;2022-08-24T07:01:29;14;11;
59546;PMS5003;45368;55.002;-1.592;2022-08-24T07:03:57;10;9;
59546;PMS5003;45368;55.002;-1.592;2022-08-24T07:06:24;13;12;
59546;PMS5003;45368;55.002;-1.592;2022-08-24T07:08:52;12;10;
59546;PMS5003;45368;55.002;-1.592;2022-08-24T07:11:19;12;10;
59546;PMS5003;45368;55.002;-1.592;2022-08-24T07:13:46;10;10;
59546;PMS5003;45368;55.002;-1.592;2022-08-24T07:16:15;10;10;
59546;PMS5003;45368;55.002;-1.592;2022-08-24T07:18:44;11;11;
59546;PMS5003;45368;55.002;-1.592;2022-08-24T07:21:11;9;9;
59546;PMS5003;45368;55.002;-1.592;2022-08-24T07:23:38;13;11;
59546;PMS5003;45368;55.002;-1.592;2022-08-24T07:26:06;11;11;
59546;PMS5003;45368;55.002;-1.592;2022-08-24T07:28:35;11;10;
59546;PMS5003;45368;55.002;-1.592;2022-08-24T07:31:03;10;9;
59546;PMS5003;45368;55.002;-1.592;2022-08-24T07:33:31;13;12;
59546;PMS5003;45368;55.002;-1.592;2022-08-24T07:35:58;11;10;
59546;PMS5003;45368;55.002;-1.592;2022-08-24T07:38:25;13;11;
59546;PMS5003;45368;55.002;-1.592;2022-08-24T07:40:53;11;10;
59546;PMS5003;45368;55.002;-1.592;2022-08-24T07:43:20;12;11;
59546;PMS5003;45368;55.002;-1.592;2022-08-24T07:45:48;11;11;
59546;PMS5003;45368;55.002;-1.592;2022-08-24T07:48:15;11;10;
59546;PMS5003;45368;55.002;-1.592;2022-08-24T07:50:44;14;14;
59546;PMS5003;45368;55.002;-1.592;2022-08-24T07:53:11;13;13;
59546;PMS5003;45368;55.002;-1.592;2022-08-24T07:55:39;14;14;
59546;PMS5003;45368;55.002;-1.592;2022-08-24T07:58:07;12;12;
59546;PMS5003;45368;55.002;-1.592;2022-08-24T08:00:33;13;13;
59546;PMS5003;45368;55.002;-1.592;2022-08-24T08:03:00;14;13;
59546;PMS5003;45368;55.002;-1.592;2022-08-24T08:05:28;15;14;
59546;PMS5003;45368;55.002;-1.592;2022-08-24T08:07:56;14;13;
59546;PMS5003;45368;55.002;-1.592;2022-08-24T08:10:23;17;15;
59546;PMS5003;45368;55.002;-1.592;2022-08-24T08:12:50;13;13;
59546;PMS5003;45368;55.002;-1.592;2022-08-24T08:15:18;12;12;
59546;PMS5003;45368;55.002;-1.592;2022-08-24T08:17:45;14;14;
59546;PMS5003;45368;55.002;-1.592;2022-08-24T08:20:13;15;14;
59546;PMS5003;45368;55.002;-1.592;2022-08-24T08:22:40;15;15;
59546;PMS5003;45368;55.002;-1.592;2022-08-24T08:25:07;19;15;
59546;PMS5003;45368;55.002;-1.592;2022-08-24T08:27:35;18;16;
59546;PMS5003;45368;55.002;-1.592;2022-08-24T08:30:03;16;16;
59546;PMS5003;45368;55.002;-1.592;2022-08-24T08:32:31;17;16;
59546;PMS5003;45368;55.002;-1.592;2022-08-24T08:34:58;15;15;
59546;PMS5003;45368;55.002;-1.592;2022-08-24T08:37:25;16;15;
59546;PMS5003;45368;55.002;-1.592;2022-08-24T08:39:53;14;13;
59546;PMS5003;45368;55.002;-1.592;2022-08-24T08:42:32;14;14;
59546;PMS5003;45368;55.002;-1.592;2022-08-24T08:45:45;14;12;
59546;PMS5003;45368;55.002;-1.592;2022-08-24T08:48:41;15;15;
59546;PMS5003;45368;55.002;-1.592;2022-08-24T08:52:32;16;15;
59546;PMS5003;45368;55.002;-1.592;2022-08-24T08:54:45;16;15;
59546;PMS5003;45368;55.002;-1.592;2022-08-24T08:57:26;15;14;
59546;PMS5003;45368;55.002;-1.592;2022-08-24T09:00:07;15;14;
59546;PMS5003;45368;55.002;-1.592;2022-08-24T09:02:48;14;14;
59546;PMS5003;45368;55.002;-1.592;2022-08-24T09:05:42;13;12;
59546;PMS5003;45368;55.002;-1.592;2022-08-24T09:08:26;11;11;
59546;PMS5003;45368;55.002;-1.592;2022-08-24T09:11:09;14;13;
59546;PMS5003;45368;55.002;-1.592;2022-08-24T09:13:51;13;12;
59546;PMS5003;45368;55.002;-1.592;2022-08-24T09:16:38;17;16;
59546;PMS5003;45368;55.002;-1.592;2022-08-24T09:19:25;13;13;
59546;PMS5003;45368;55.002;-1.592;2022-08-24T09:22:04;11;11;
59546;PMS5003;45368;55.002;-1.592;2022-08-24T09:25:43;11;11;
59546;PMS5003;45368;55.002;-1.592;2022-08-24T09:28:24;15;14;
59546;PMS5003;45368;55.002;-1.592;2022-08-24T09:31:14;12;12;
59546;PMS5003;45368;55.002;-1.592;2022-08-24T09:33:54;12;12;
59546;PMS5003;45368;55.002;-1.592;2022-08-24T09:36:43;12;12;
59546;PMS5003;45368;55.002;-1.592;2022-08-24T09:39:26;10;10;
59546;PMS5003;45368;55.002;-1.592;2022-08-24T09:42:13;11;11;
59546;PMS5003;45368;55.002;-1.592;2022-08-24T09:45:11;14;13;
59546;PMS5003;45368;55.002;-1.592;2022-08-24T09:50:06;12;12;
59546;PMS5003;45368;55.002;-1.592;2022-08-24T09:52:25;12;12;
59546;PMS5003;45368;55.002;-1.592;2022-08-24T09:55:32;13;13;
59546;PMS5003;45368;55.002;-1.592;2022-08-24T09:58:33;14;13;
59546;PMS5003;45368;55.002;-1.592;2022-08-24T10:01:12;11;11;
59546;PMS5003;45368;55.002;-1.592;2022-08-24T10:04:02;13;12;
59546;PMS5003;45368;55.002;-1.592;2022-08-24T10:06:38;11;11;
59546;PMS5003;45368;55.002;-1.592;2022-08-24T10:09:25;12;10;
59546;PMS5003;45368;55.002;-1.592;2022-08-24T10:12:21;12;12;
59546;PMS5003;45368;55.002;-1.592;2022-08-24T10:15:05;11;10;
59546;PMS5003;45368;55.002;-1.592;2022-08-24T10:17:38;9;9;
59546;PMS5003;45368;55.002;-1.592;2022-08-24T10:20:19;11;10;
59546;PMS5003;45368;55.002;-1.592;2022-08-24T10:22:55;10;10;
59546;PMS5003;45368;55.002;-1.592;2022-08-24T10:25:33;11;10;
59546;PMS5003;45368;55.002;-1.592;2022-08-24T10:28:11;7;7;
59546;PMS5003;45368;55.002;-1.592;2022-08-24T10:31:09;4;3;
59546;PMS5003;45368;55.002;-1.592;2022-08-24T10:33:46;4;4;
59546;PMS5003;45368;55.002;-1.592;2022-08-24T10:37:01;1;1;
59546;PMS5003;45368;55.002;-1.592;2022-08-24T10:39:52;1;1;
59546;PMS5003;45368;55.002;-1.592;2022-08-24T10:42:42;1;1;
59546;PMS5003;45368;55.002;-1.592;2022-08-24T10:45:35;0;0;
59546;PMS5003;45368;55.002;-1.592;2022-08-24T10:47:58;0;0;
59546;PMS5003;45368;55.002;-1.592;2022-08-24T10:50:45;0;0;
59546;PMS5003;45368;55.002;-1.592;2022-08-24T10:53:23;0;0;
59546;PMS5003;45368;55.002;-1.592;2022-08-24T10:55:57;0;0;
59546;PMS5003;45368;55.002;-1.592;2022-08-24T10:58:36;0;0;
59546;PMS5003;45368;55.002;-1.592;2022-08-24T11:01:15;0;0;
59546;PMS5003;45368;55.002;-1.592;2022-08-24T11:03:47;0;0;
59546;PMS5003;45368;55.002;-1.592;2022-08-24T11:06:17;0;0;
59546;PMS5003;45368;55.002;-1.592;2022-08-24T11:08:54;0;0;
59546;PMS5003;45368;55.002;-1.592;2022-08-24T11:11:25;0;0;
59546;PMS5003;45368;55.002;-1.592;2022-08-24T11:13:56;0;0;
59546;PMS5003;45368;55.002;-1.592;2022-08-24T11:16:27;0;0;
59546;PMS5003;45368;55.002;-1.592;2022-08-24T11:18:57;0;0;
59546;PMS5003;45368;55.002;-1.592;2022-08-24T11:21:36;0;0;
59546;PMS5003;45368;55.002;-1.592;2022-08-24T11:24:09;0;0;
59546;PMS5003;45368;55.002;-1.592;2022-08-24T11:26:50;0;0;
59546;PMS5003;45368;55.002;-1.592;2022-08-24T11:29:20;0;0;
59546;PMS5003;45368;55.002;-1.592;2022-08-24T11:31:51;0;0;
59546;PMS5003;45368;55.002;-1.592;2022-08-24T11:34:28;0;0;
59546;PMS5003;45368;55.002;-1.592;2022-08-24T11:36:57;0;0;
59546;PMS5003;45368;55.002;-1.592;2022-08-24T11:39:26;0;0;
59546;PMS5003;45368;55.002;-1.592;2022-08-24T11:42:02;0;0;
59546;PMS5003;45368;55.002;-1.592;2022-08-24T11:44:39;0;0;
59546;PMS5003;45368;55.002;-1.592;2022-08-24T11:47:16;0;0;
59546;PMS5003;45368;55.002;-1.592;2022-08-24T11:50:04;0;0;
59546;PMS5003;45368;55.002;-1.592;2022-08-24T11:52:44;0;0;
59546;PMS5003;45368;55.002;-1.592;2022-08-24T11:55:19;0;0;
59546;PMS5003;45368;55.002;-1.592;2022-08-24T11:57:56;0;0;
59546;PMS5003;45368;55.002;-1.592;2022-08-24T12:00:32;0;0;
59546;PMS5003;45368;55.002;-1.592;2022-08-24T12:03:10;0;0;
59546;PMS5003;45368;55.002;-1.592;2022-08-24T12:05:54;0;0;
59546;PMS5003;45368;55.002;-1.592;2022-08-24T12:08:27;0;0;
59546;PMS5003;45368;55.002;-1.592;2022-08-24T12:11:02;0;0;
59546;PMS5003;45368;55.002;-1.592;2022-08-24T12:13:38;0;0;
59546;PMS5003;45368;55.002;-1.592;2022-08-24T12:16:15;0;0;
59546;PMS5003;45368;55.002;-1.592;2022-08-24T12:18:50;0;0;
59546;PMS5003;45368;55.002;-1.592;2022-08-24T12:21:24;0;0;
59546;PMS5003;45368;55.002;-1.592;2022-08-24T12:23:57;0;0;
59546;PMS5003;45368;55.002;-1.592;2022-08-24T12:26:28;0;0;
59546;PMS5003;45368;55.002;-1.592;2022-08-24T12:29:05;0;0;
59546;PMS5003;45368;55.002;-1.592;2022-08-24T12:31:37;0;0;
59546;PMS5003;45368;55.002;-1.592;2022-08-24T12:34:08;0;0;
59546;PMS5003;45368;55.002;-1.592;2022-08-24T12:36:40;0;0;
59546;PMS5003;45368;55.002;-1.592;2022-08-24T12:39:15;0;0;
59546;PMS5003;45368;55.002;-1.592;2022-08-24T12:41:48;0;0;
59546;PMS5003;45368;55.002;-1.592;2022-08-24T12:44:25;0;0;
59546;PMS5003;45368;55.002;-1.592;2022-08-24T12:47:01;0;0;
59546;PMS5003;45368;55.002;-1.592;2022-08-24T12:49:29;0;0;
59546;PMS5003;45368;55.002;-1.592;2022-08-24T12:52:10;0;0;
59546;PMS5003;45368;55.002;-1.592;2022-08-24T12:54:54;0;0;
59546;PMS5003;45368;55.002;-1.592;2022-08-24T12:57:42;0;0;
59546;PMS5003;45368;55.002;-1.592;2022-08-24T13:00:19;0;0;
59546;PMS5003;45368;55.002;-1.592;2022-08-24T13:02:54;0;0;
59546;PMS5003;45368;55.002;-1.592;2022-08-24T13:05:23;0;0;
59546;PMS5003;45368;55.002;-1.592;2022-08-24T13:08:08;0;0;
59546;PMS5003;45368;55.002;-1.592;2022-08-24T13:10:39;0;0;
59546;PMS5003;45368;55.002;-1.592;2022-08-24T13:13:12;0;0;
59546;PMS5003;45368;55.002;-1.592;2022-08-24T13:15:51;0;0;
59546;PMS5003;45368;55.002;-1.592;2022-08-24T13:18:26;0;0;
59546;PMS5003;45368;55.002;-1.592;2022-08-24T13:21:40;0;0;
59546;PMS5003;45368;55.002;-1.592;2022-08-24T13:24:46;0;0;
59546;PMS5003;45368;55.002;-1.592;2022-08-24T13:28:37;0;0;
59546;PMS5003;45368;55.002;-1.592;2022-08-24T13:31:12;0;0;
59546;PMS5003;45368;55.002;-1.592;2022-08-24T13:33:45;0;0;
59546;PMS5003;45368;55.002;-1.592;2022-08-24T13:36:39;0;0;
59546;PMS5003;45368;55.002;-1.592;2022-08-24T13:39:18;0;0;
59546;PMS5003;45368;55.002;-1.592;2022-08-24T13:42:05;0;0;
59546;PMS5003;45368;55.002;-1.592;2022-08-24T13:44:49;0;0;
59546;PMS5003;45368;55.002;-1.592;2022-08-24T13:47:26;0;0;
59546;PMS5003;45368;55.002;-1.592;2022-08-24T13:50:01;0;0;
59546;PMS5003;45368;55.002;-1.592;2022-08-24T13:52:38;0;0;
59546;PMS5003;45368;55.002;-1.592;2022-08-24T13:55:19;0;0;
59546;PMS5003;45368;55.002;-1.592;2022-08-24T13:58:15;0;0;
59546;PMS5003;45368;55.002;-1.592;2022-08-24T14:00:51;0;0;
59546;PMS5003;45368;55.002;-1.592;2022-08-24T14:03:30;0;0;
59546;PMS5003;45368;55.002;-1.592;2022-08-24T14:06:47;0;0;
59546;PMS5003;45368;55.002;-1.592;2022-08-24T14:09:26;0;0;
59546;PMS5003;45368;55.002;-1.592;2022-08-24T14:12:03;0;0;
59546;PMS5003;45368;55.002;-1.592;2022-08-24T14:14:46;0;0;
59546;PMS5003;45368;55.002;-1.592;2022-08-24T14:17:26;0;0;
59546;PMS5003;45368;55.002;-1.592;2022-08-24T14:20:04;0;0;
59546;PMS5003;45368;55.002;-1.592;2022-08-24T14:22:40;0;0;
59546;PMS5003;45368;55.002;-1.592;2022-08-24T14:25:24;0;0;
59546;PMS5003;45368;55.002;-1.592;2022-08-24T14:28:22;0;0;
59546;PMS5003;45368;55.002;-1.592;2022-08-24T14:31:17;0;0;
59546;PMS5003;45368;55.002;-1.592;2022-08-24T14:33:50;0;0;
59546;PMS5003;45368;55.002;-1.592;2022-08-24T14:36:28;0;0;
59546;PMS5003;45368;55.002;-1.592;2022-08-24T14:39:11;0;0;
59546;PMS5003;45368;55.002;-1.592;2022-08-24T14:41:55;0;0;
59546;PMS5003;45368;55.002;-1.592;2022-08-24T14:44:32;0;0;
59546;PMS5003;45368;55.002;-1.592;2022-08-24T14:47:18;0;0;
59546;PMS5003;45368;55.002;-1.592;2022-08-24T14:50:05;0;0;
59546;PMS5003;45368;55.002;-1.592;2022-08-24T14:52:41;0;0;
59546;PMS5003;45368;55.002;-1.592;2022-08-24T14:55:24;0;0;
59546;PMS5003;45368;55.002;-1.592;2022-08-24T14:58:03;0;0;
59546;PMS5003;45368;55.002;-1.592;2022-08-24T15:01:18;0;0;
59546;PMS5003;45368;55.002;-1.592;2022-08-24T15:04:15;0;0;
59546;PMS5003;45368;55.002;-1.592;2022-08-24T15:06:58;0;0;
59546;PMS5003;45368;55.002;-1.592;2022-08-24T15:09:47;0;0;
59546;PMS5003;45368;55.002;-1.592;2022-08-24T15:12:22;0;0;
59546;PMS5003;45368;55.002;-1.592;2022-08-24T15:15:03;0;0;
59546;PMS5003;45368;55.002;-1.592;2022-08-24T15:17:41;0;0;
59546;PMS5003;45368;55.002;-1.592;2022-08-24T15:20:17;0;0;
59546;PMS5003;45368;55.002;-1.592;2022-08-24T15:22:49;1;0;
59546;PMS5003;45368;55.002;-1.592;2022-08-24T15:25:28;1;0;
59546;PMS5003;45368;55.002;-1.592;2022-08-24T15:28:05;0;0;
59546;PMS5003;45368;55.002;-1.592;2022-08-24T15:30:36;0;0;
59546;PMS5003;45368;55.002;-1.592;2022-08-24T15:33:07;0;0;
59546;PMS5003;45368;55.002;-1.592;2022-08-24T15:35:37;1;0;
59546;PMS5003;45368;55.002;-1.592;2022-08-24T15:38:23;0;0;
59546;PMS5003;45368;55.002;-1.592;2022-08-24T15:41:02;0;0;
59546;PMS5003;45368;55.002;-1.592;2022-08-24T15:43:32;0;0;
59546;PMS5003;45368;55.002;-1.592;2022-08-24T15:46:01;2;1;
59546;PMS5003;45368;55.002;-1.592;2022-08-24T15:48:29;0;0;
59546;PMS5003;45368;55.002;-1.592;2022-08-24T15:50:57;0;0;
59546;PMS5003;45368;55.002;-1.592;2022-08-24T15:53:31;0;0;
59546;PMS5003;45368;55.002;-1.592;2022-08-24T15:56:23;0;0;
59546;PMS5003;45368;55.002;-1.592;2022-08-24T15:58:54;1;0;
59546;PMS5003;45368;55.002;-1.592;2022-08-24T16:01:33;0;0;
59546;PMS5003;45368;55.002;-1.592;2022-08-24T16:04:02;0;0;
59546;PMS5003;45368;55.002;-1.592;2022-08-24T16:06:34;0;0;
59546;PMS5003;45368;55.002;-1.592;2022-08-24T16:09:05;0;0;
59546;PMS5003;45368;55.002;-1.592;2022-08-24T16:11:38;0;0;
59546;PMS5003;45368;55.002;-1.592;2022-08-24T16:14:11;0;0;
59546;PMS5003;45368;55.002;-1.592;2022-08-24T16:16:41;1;0;
59546;PMS5003;45368;55.002;-1.592;2022-08-24T16:19:17;0;0;
59546;PMS5003;45368;55.002;-1.592;2022-08-24T16:21:51;1;0;
59546;PMS5003;45368;55.002;-1.592;2022-08-24T16:24:23;0;0;
59546;PMS5003;45368;55.002;-1.592;2022-08-24T16:26:56;0;0;
59546;PMS5003;45368;55.002;-1.592;2022-08-24T16:30:03;0;0;
59546;PMS5003;45368;55.002;-1.592;2022-08-24T16:32:51;0;0;
59546;PMS5003;45368;55.002;-1.592;2022-08-24T16:35:20;0;0;
59546;PMS5003;45368;55.002;-1.592;2022-08-24T16:37:51;1;0;
59546;PMS5003;45368;55.002;-1.592;2022-08-24T16:40:19;0;0;
59546;PMS5003;45368;55.002;-1.592;2022-08-24T16:42:46;0;0;
59546;PMS5003;45368;55.002;-1.592;2022-08-24T16:45:16;0;0;
59546;PMS5003;45368;55.002;-1.592;2022-08-24T16:47:45;0;0;
59546;PMS5003;45368;55.002;-1.592;2022-08-24T16:50:14;1;1;
59546;PMS5003;45368;55.002;-1.592;2022-08-24T16:52:43;0;0;
59546;PMS5003;45368;55.002;-1.592;2022-08-24T16:55:10;2;0;
59546;PMS5003;45368;55.002;-1.592;2022-08-24T16:57:38;0;0;
59546;PMS5003;45368;55.002;-1.592;2022-08-24T17:00:07;0;0;
59546;PMS5003;45368;55.002;-1.592;2022-08-24T17:02:37;0;0;
59546;PMS5003;45368;55.002;-1.592;2022-08-24T17:05:05;0;0;
59546;PMS5003;45368;55.002;-1.592;2022-08-24T17:07:33;2;1;
59546;PMS5003;45368;55.002;-1.592;2022-08-24T17:10:01;1;1;
59546;PMS5003;45368;55.002;-1.592;2022-08-24T17:12:30;1;1;